Time;durP1;ratioP1;P1;durP2;ratioP2;P2;SDS_P1;SDS_P2;PMS_P1;PMS_P2;Temp;Humidity;BMP_temperature;BMP_pressure;BME280_temperature;BME280_humidity;BME280_pressure;Samples;Min_cycle;Max_cycle;Signal;HPM_P1;HPM_P2
2022/09/28 04:01:06;;;;;;;1.80;0.80;;;;;;;;;;5774784;22;20441;-89
2022/09/28 04:03:32;;;;;;;1.15;0.73;;;;;;;;;;5095212;28;20424;-90
2022/09/28 04:05:58;;;;;;;3.00;1.08;;;;;;;;;;5098853;28;20854;-87
2022/09/28 04:08:24;;;;;;;2.50;1.10;;;;;;;;;;5094152;28;20464;-89
2022/09/28 04:10:50;;;;;;;2.58;1.20;;;;;;;;;;5090168;28;20376;-90
2022/09/28 04:13:16;;;;;;;1.80;1.00;;;;;;;;;;5071921;28;20791;-89
2022/09/28 04:15:43;;;;;;;4.03;1.20;;;;;;;;;;5069835;28;20457;-89
2022/09/28 04:18:10;;;;;;;1.17;1.00;;;;;;;;;;5068939;28;20376;-89
2022/09/28 04:20:36;;;;;;;3.22;1.00;;;;;;;;;;5069948;28;20462;-89
2022/09/28 04:23:02;;;;;;;1.83;0.95;;;;;;;;;;5073303;28;20380;-89
2022/09/28 04:25:28;;;;;;;2.45;1.02;;;;;;;;;;5073493;28;20384;-90
2022/09/28 04:30:38;;;;;;;1.60;0.80;;;;;;;;;;5073523;28;20375;-90
2022/09/28 04:33:04;;;;;;;1.70;1.00;;;;;;;;;;5073200;28;20380;-89
2022/09/28 04:35:30;;;;;;;3.35;1.15;;;;;;;;;;5073225;28;20371;-89
2022/09/28 04:37:56;;;;;;;2.47;1.00;;;;;;;;;;5073246;28;20464;-89
2022/09/28 04:40:22;;;;;;;2.00;0.98;;;;;;;;;;5073135;28;20382;-89
2022/09/28 04:42:55;;;;;;;2.03;0.90;;;;;;;;;;5073055;28;20773;-88
2022/09/28 04:45:21;;;;;;;2.55;1.05;;;;;;;;;;5073252;28;20380;-87
2022/09/28 04:47:47;;;;;;;2.43;0.87;;;;;;;;;;5072768;28;20900;-89
2022/09/28 04:50:13;;;;;;;1.35;1.00;;;;;;;;;;5073040;28;20387;-88
2022/09/28 04:52:39;;;;;;;1.55;0.90;;;;;;;;;;5072897;28;20428;-88
2022/09/28 04:55:06;;;;;;;3.40;1.10;;;;;;;;;;5072845;28;20857;-87
2022/09/28 04:57:34;;;;;;;6.38;1.30;;;;;;;;;;5072707;28;20736;-89
2022/09/28 05:00:00;;;;;;;1.45;1.10;;;;;;;;;;5072829;28;20384;-87
2022/09/28 05:02:28;;;;;;;3.37;1.20;;;;;;;;;;5072503;28;20415;-88
2022/09/28 05:04:55;;;;;;;1.70;1.10;;;;;;;;;;5072695;28;20380;-88
2022/09/28 05:07:21;;;;;;;3.63;1.00;;;;;;;;;;5072567;28;20404;-88
2022/09/28 05:09:47;;;;;;;1.92;0.90;;;;;;;;;;5072577;28;20391;-87
2022/09/28 05:12:13;;;;;;;2.60;0.90;;;;;;;;;;5071970;28;20871;-87
2022/09/28 05:14:39;;;;;;;1.30;1.00;;;;;;;;;;5072982;28;20407;-88
2022/09/28 05:17:05;;;;;;;2.65;1.15;;;;;;;;;;5073110;28;20387;-87
2022/09/28 05:19:33;;;;;;;2.28;1.10;;;;;;;;;;5072369;28;20748;-87
2022/09/28 05:22:03;;;;;;;1.52;1.10;;;;;;;;;;5070690;28;20829;-88
2022/09/28 05:24:29;;;;;;;1.40;1.00;;;;;;;;;;5072364;28;20379;-90
2022/09/28 05:26:55;;;;;;;1.92;1.00;;;;;;;;;;5072336;28;20495;-89
2022/09/28 05:29:21;;;;;;;1.80;0.90;;;;;;;;;;5054227;28;20459;-88
2022/09/28 05:31:47;;;;;;;2.30;1.08;;;;;;;;;;5072182;28;20382;-88
2022/09/28 05:34:13;;;;;;;1.52;1.30;;;;;;;;;;5074507;28;20392;-89
2022/09/28 05:36:41;;;;;;;1.80;1.23;;;;;;;;;;5075080;28;20387;-89
2022/09/28 05:39:08;;;;;;;1.70;1.10;;;;;;;;;;5072343;28;20394;-91
2022/09/28 05:41:34;;;;;;;2.05;1.05;;;;;;;;;;5072259;28;20567;-89
2022/09/28 05:44:00;;;;;;;1.85;1.38;;;;;;;;;;5071769;28;20876;-89
2022/09/28 05:46:26;;;;;;;3.13;1.10;;;;;;;;;;5069163;28;20411;-92
2022/09/28 05:48:53;;;;;;;1.92;1.10;;;;;;;;;;5086421;28;20377;-93
2022/09/28 05:51:19;;;;;;;1.13;0.90;;;;;;;;;;5089216;28;20390;-93
2022/09/28 05:53:45;;;;;;;1.50;0.98;;;;;;;;;;5079640;28;20733;-90
2022/09/28 05:56:11;;;;;;;1.02;0.88;;;;;;;;;;5072119;28;20472;-90
2022/09/28 05:58:37;;;;;;;2.45;1.05;;;;;;;;;;5073455;28;20372;-92
2022/09/28 06:01:03;;;;;;;1.38;0.82;;;;;;;;;;5076280;28;20391;-89
2022/09/28 06:03:29;;;;;;;2.38;0.93;;;;;;;;;;5077346;28;20387;-93
2022/09/28 06:05:55;;;;;;;1.52;0.82;;;;;;;;;;5085496;28;20370;-92
2022/09/28 06:08:21;;;;;;;0.77;0.77;;;;;;;;;;5083977;28;20403;-93
2022/09/28 06:10:47;;;;;;;1.10;0.70;;;;;;;;;;5081909;28;20389;-92
2022/09/28 06:13:13;;;;;;;2.55;0.85;;;;;;;;;;5084498;28;20383;-88
2022/09/28 06:15:41;;;;;;;2.10;1.00;;;;;;;;;;5076233;28;20783;-91
2022/09/28 06:18:13;;;;;;;1.60;0.90;;;;;;;;;;5086435;28;20444;-89
2022/09/28 06:20:40;;;;;;;1.20;1.10;;;;;;;;;;5079035;28;20375;-91
2022/09/28 06:23:06;;;;;;;2.47;1.10;;;;;;;;;;5075821;28;20733;-90
2022/09/28 06:25:33;;;;;;;2.20;0.90;;;;;;;;;;5075921;28;20517;-89
2022/09/28 06:28:00;;;;;;;1.30;0.90;;;;;;;;;;5075583;28;20860;-90
2022/09/28 06:30:27;;;;;;;1.27;0.80;;;;;;;;;;5075650;28;20387;-90
2022/09/28 06:32:54;;;;;;;1.52;0.80;;;;;;;;;;5075566;28;20406;-90
2022/09/28 06:35:20;;;;;;;1.40;0.90;;;;;;;;;;5075635;28;20840;-90
2022/09/28 06:37:47;;;;;;;2.05;0.80;;;;;;;;;;5075284;28;20383;-90
2022/09/28 06:40:13;;;;;;;0.88;0.80;;;;;;;;;;5075560;28;20441;-89
2022/09/28 06:42:39;;;;;;;1.10;1.00;;;;;;;;;;5072604;28;20398;-89
2022/09/28 06:45:05;;;;;;;1.85;1.08;;;;;;;;;;5054723;28;20393;-90
2022/09/28 06:47:32;;;;;;;1.58;1.15;;;;;;;;;;5057284;28;20413;-88
2022/09/28 06:49:58;;;;;;;1.67;0.90;;;;;;;;;;5070784;28;20390;-88
2022/09/28 06:52:24;;;;;;;2.20;0.95;;;;;;;;;;5075065;28;20744;-89
2022/09/28 06:54:50;;;;;;;1.05;0.75;;;;;;;;;;5075157;28;20379;-89
2022/09/28 06:57:16;;;;;;;1.70;0.80;;;;;;;;;;5075161;28;20467;-89
2022/09/28 06:59:43;;;;;;;1.20;0.70;;;;;;;;;;5074909;28;20437;-87
2022/09/28 07:02:15;;;;;;;1.10;0.90;;;;;;;;;;5040787;28;20505;-88
2022/09/28 07:04:42;;;;;;;1.33;0.70;;;;;;;;;;5014331;28;20442;-88
2022/09/28 07:07:09;;;;;;;1.08;0.85;;;;;;;;;;5059601;28;20518;-87
2022/09/28 07:09:35;;;;;;;1.27;0.70;;;;;;;;;;5073503;28;20462;-88
2022/09/28 07:12:03;;;;;;;4.05;0.93;;;;;;;;;;5073497;28;20379;-86
2022/09/28 07:14:30;;;;;;;1.77;0.93;;;;;;;;;;5074760;28;20411;-86
2022/09/28 07:16:56;;;;;;;1.48;1.00;;;;;;;;;;5074636;28;20387;-86
2022/09/28 07:19:22;;;;;;;1.30;1.08;;;;;;;;;;5074621;28;20474;-86
2022/09/28 07:21:48;;;;;;;1.30;1.00;;;;;;;;;;5074494;28;20459;-86
2022/09/28 07:24:14;;;;;;;1.20;0.90;;;;;;;;;;5074641;28;20390;-87
2022/09/28 07:26:40;;;;;;;2.80;1.10;;;;;;;;;;5074510;28;20420;-86
2022/09/28 07:29:06;;;;;;;1.27;0.75;;;;;;;;;;5074519;28;20372;-85
2022/09/28 07:31:33;;;;;;;1.50;0.83;;;;;;;;;;5074480;28;20447;-86
2022/09/28 07:33:59;;;;;;;0.80;0.80;;;;;;;;;;5074393;28;20410;-86
2022/09/28 07:36:25;;;;;;;1.13;0.80;;;;;;;;;;5074447;28;20415;-85
2022/09/28 07:38:51;;;;;;;3.50;0.90;;;;;;;;;;5074949;28;20379;-85
2022/09/28 07:41:25;;;;;;;0.80;0.80;;;;;;;;;;5076279;28;20384;-85
2022/09/28 07:43:52;;;;;;;1.33;0.60;;;;;;;;;;5073961;28;20403;-85
2022/09/28 07:46:19;;;;;;;0.70;0.70;;;10.20;99.90;;;;;;5074274;28;20385;-84
2022/09/28 07:48:45;;;;;;;1.20;0.75;;;9.90;99.90;;;;;;5073844;28;20384;-85
2022/09/28 07:51:10;;;;;;;1.40;0.77;;;10.20;99.90;;;;;;5074052;28;20860;-85
2022/09/28 07:53:37;;;;;;;1.30;0.80;;;10.60;99.90;;;;;;5074166;28;20471;-85
2022/09/28 07:56:06;;;;;;;0.70;0.70;;;10.00;99.90;;;;;;5059083;28;21002;-86
2022/09/28 07:58:33;;;;;;;1.73;0.97;;;10.10;99.90;;;;;;4991756;28;20391;-87
2022/09/28 08:01:01;;;;;;;0.80;0.80;;;10.40;99.90;;;;;;4991463;28;20394;-85
2022/09/28 08:03:27;;;;;;;1.00;0.60;;;10.10;99.90;;;;;;4991644;28;20383;-85
2022/09/28 08:06:01;;;;;;;1.30;0.90;;;10.30;99.90;;;;;;4991635;28;20475;-85
2022/09/28 08:08:28;;;;;;;1.95;1.10;;;10.50;99.90;;;;;;4991502;28;20428;-86
2022/09/28 08:10:55;;;;;;;1.02;0.90;;;10.20;99.90;;;;;;4991550;28;20394;-85
2022/09/28 08:13:24;;;;;;;1.73;0.90;;;10.80;99.90;;;;;;4991529;28;20478;-85
2022/09/28 08:15:50;;;;;;;1.30;0.90;;;10.50;99.90;;;;;;4991463;28;20462;-86
2022/09/28 08:18:16;;;;;;;0.95;0.70;;;10.60;99.90;;;;;;5058622;28;20938;-85
2022/09/28 08:23:26;;;;;;;1.20;1.08;;;10.60;99.90;;;;;;4991327;28;20448;-85
2022/09/28 08:25:52;;;;;;;2.00;0.83;;;10.60;99.90;;;;;;4991376;28;20906;-84
2022/09/28 08:28:18;;;;;;;1.13;1.02;;;10.70;99.90;;;;;;4991291;28;20391;-86
2022/09/28 08:30:45;;;;;;;1.77;1.20;;;10.50;99.90;;;;;;4991061;28;20444;-85
2022/09/28 08:33:12;;;;;;;1.30;1.20;;;10.70;99.90;;;;;;4995077;28;20387;-85
2022/09/28 08:35:39;;;;;;;1.33;1.10;;;10.90;99.90;;;;;;4991238;28;20490;-86
2022/09/28 08:38:06;;;;;;;1.00;0.90;;;10.80;99.90;;;;;;4990987;28;20421;-85
2022/09/28 08:40:54;;;;;;;1.00;0.90;;;11.30;99.90;;;;;;4990990;28;20425;-86
2022/09/28 08:43:27;;;;;;;1.38;1.10;;;;;;;;;;5067382;28;20466;-85
2022/09/28 08:45:55;;;;;;;1.30;0.80;;;10.40;99.90;;;;;;5073348;28;20372;-85
2022/09/28 08:48:43;;;;;;;1.05;0.85;;;;;;;;;;5072752;28;20404;-86
2022/09/28 08:51:20;;;;;;;1.73;1.10;;;;;;;;;;5072851;28;20407;-87
2022/09/28 08:53:52;;;;;;;1.80;1.10;;;;;;;;;;5073047;28;20398;-85
2022/09/28 08:56:28;;;;;;;2.25;1.02;;;10.30;99.90;;;;;;5072645;28;20384;-87
2022/09/28 08:58:56;;;;;;;1.73;0.80;;;;;;;;;;5072818;28;20384;-87
2022/09/28 09:01:25;;;;;;;1.70;0.80;;;9.90;99.90;;;;;;5072618;28;20423;-88
2022/09/28 09:03:53;;;;;;;2.40;0.80;;;10.20;99.90;;;;;;5073013;28;20718;-88
2022/09/28 09:06:29;;;;;;;1.95;1.00;;;10.20;99.90;;;;;;5072254;28;20375;-89
2022/09/28 09:09:13;;;;;;;4.82;1.90;;;10.00;99.90;;;;;;5059325;28;20407;-89
2022/09/28 09:11:56;;;;;;;1.50;0.90;;;10.70;99.90;;;;;;5072493;28;20376;-88
2022/09/28 09:14:32;;;;;;;1.80;0.73;;;;;;;;;;5072833;28;20379;-88
2022/09/28 09:17:14;;;;;;;3.20;0.90;;;9.50;99.90;;;;;;5072373;28;20419;-88
2022/09/28 09:19:57;;;;;;;3.10;1.02;;;9.90;99.90;;;;;;5072548;28;20467;-87
2022/09/28 09:22:34;;;;;;;3.72;1.00;;;;;;;;;;5072336;28;20761;-88
2022/09/28 09:25:18;;;;;;;1.08;0.70;;;9.90;99.90;;;;;;5072590;28;20376;-87
2022/09/28 09:28:23;;;;;;;1.95;0.80;;;9.70;99.90;;;;;;5072345;28;20865;-87
2022/09/28 09:30:56;;;;;;;1.73;0.90;;;10.10;99.90;;;;;;5074785;28;20757;-88
2022/09/28 09:33:32;;;;;;;2.00;0.88;;;;;;;;;;5072461;28;20386;-86
2022/09/28 09:36:24;;;;;;;1.27;0.73;;;;;;;;;;5072450;28;20387;-86
2022/09/28 09:39:10;;;;;;;2.70;1.00;;;;;;;;;;5005373;28;20479;-87
2022/09/28 09:41:45;;;;;;;2.78;1.00;;;;;;;;;;5008076;28;20437;-87
2022/09/28 09:44:23;;;;;;;1.98;0.90;;;;;;;;;;5072121;28;20471;-87
2022/09/28 09:46:49;;;;;;;3.07;1.50;;;;;;;;;;5071668;28;20449;-86
2022/09/28 09:49:24;;;;;;;3.10;1.58;;;;;;;;;;5072141;28;20437;-87
2022/09/28 09:51:50;;;;;;;3.35;0.90;;;;;;;;;;5080168;28;20375;-87
2022/09/28 09:54:31;;;;;;;1.90;1.05;;;;;;;;;;5075291;28;20807;-86
2022/09/28 09:57:00;;;;;;;3.17;1.55;;;;;;;;;;5070781;28;20472;-87
2022/09/28 09:59:32;;;;;;;2.63;1.60;;;;;;;;;;5072175;28;20721;-87
2022/09/28 10:02:00;;;;;;;2.00;0.90;;;;;;;;;;5072396;28;20399;-86
2022/09/28 10:04:32;;;;;;;1.38;0.73;;;;;;;;;;5072080;28;20433;-87
2022/09/28 10:07:03;;;;;;;0.98;0.68;;;;;;;;;;5071882;28;20408;-87
2022/09/28 10:09:35;;;;;;;1.20;0.80;;;;;;;;;;5071939;28;20446;-87
2022/09/28 10:12:01;;;;;;;1.05;0.60;;;11.00;99.90;;;;;;5071789;28;20379;-86
2022/09/28 10:14:27;;;;;;;0.80;0.50;;;11.40;99.90;;;;;;5072002;28;20394;-86
2022/09/28 10:16:55;;;;;;;1.20;0.70;;;11.40;99.90;;;;;;5071806;28;20612;-87
2022/09/28 10:19:32;;;;;;;0.95;0.60;;;10.70;99.90;;;;;;5071922;28;20392;-86
2022/09/28 10:22:01;;;;;;;1.23;0.60;;;10.50;99.90;;;;;;5071599;28;20420;-86
2022/09/28 10:24:31;;;;;;;2.17;0.77;;;;;;;;;;5071786;28;20387;-87
2022/09/28 10:27:02;;;;;;;1.00;0.60;;;;;;;;;;5071724;28;20387;-87
2022/09/28 10:29:40;;;;;;;3.33;1.23;;;10.40;99.90;;;;;;5071794;28;20405;-88
2022/09/28 10:32:17;;;;;;;1.75;0.90;;;;;;;;;;5071503;28;20387;-87
2022/09/28 10:34:42;;;;;;;2.08;1.20;;;10.30;99.90;;;;;;5071780;28;20384;-85
2022/09/28 10:37:09;;;;;;;1.45;0.80;;;10.00;99.90;;;;;;5071854;28;20404;-86
2022/09/28 10:39:52;;;;;;;1.08;0.60;;;10.10;99.90;;;;;;5072032;28;20733;-86
2022/09/28 10:42:28;;;;;;;2.25;1.00;;;10.20;99.90;;;;;;5063087;28;20419;-86
2022/09/28 10:45:06;;;;;;;2.72;1.30;;;10.00;99.90;;;;;;5073191;28;20386;-86
2022/09/28 10:47:34;;;;;;;1.40;0.88;;;10.10;99.90;;;;;;5075247;28;20853;-87
2022/09/28 10:50:00;;;;;;;2.40;1.00;;;9.90;99.90;;;;;;5075308;28;20386;-87
2022/09/28 10:52:38;;;;;;;1.65;0.90;;;9.90;99.90;;;;;;5075137;28;20394;-86
2022/09/28 10:55:24;;;;;;;1.52;0.80;;;10.00;99.90;;;;;;5075027;28;20392;-85
2022/09/28 10:57:51;;;;;;;1.10;0.70;;;10.00;99.90;;;;;;5075090;28;20419;-87
2022/09/28 11:00:33;;;;;;;2.90;0.90;;;10.10;99.90;;;;;;5074907;28;20379;-86
2022/09/28 11:03:01;;;;;;;0.70;0.70;;;10.20;99.90;;;;;;5073294;28;20946;-87
2022/09/28 11:05:27;;;;;;;1.52;0.80;;;10.30;99.90;;;;;;5075056;28;20372;-87
2022/09/28 11:07:54;;;;;;;2.08;0.80;;;10.40;99.90;;;;;;5074746;28;20379;-87
2022/09/28 11:10:28;;;;;;;1.00;0.80;;;10.50;99.90;;;;;;5074107;28;20754;-86
2022/09/28 11:12:55;;;;;;;1.35;0.90;;;10.90;99.90;;;;;;5074882;28;20391;-88
2022/09/28 11:15:27;;;;;;;2.83;1.20;;;10.60;99.90;;;;;;5074799;28;20877;-87
2022/09/28 11:17:53;;;;;;;1.77;1.30;;;11.10;99.90;;;;;;5075014;28;20453;-86
2022/09/28 11:20:24;;;;;;;3.03;1.20;;;10.00;99.90;;;;;;5074719;28;20379;-86
2022/09/28 11:23:19;;;;;;;2.25;1.00;;;;;;;;;;5074723;28;20377;-87
2022/09/28 11:25:57;;;;;;;1.65;0.90;;;;;;;;;;5074664;28;20376;-88
2022/09/28 11:28:28;;;;;;;1.55;0.93;;;;;;;;;;5074620;28;20386;-87
2022/09/28 11:30:55;;;;;;;1.35;1.10;;;;;;;;;;5074491;28;20380;-87
2022/09/28 11:33:31;;;;;;;1.80;1.10;;;;;;;;;;5074565;28;20439;-88
2022/09/28 11:36:04;;;;;;;2.03;1.10;;;;;;;;;;4995551;28;20426;-85
2022/09/28 11:38:35;;;;;;;1.52;1.10;;;;;;;;;;5011091;28;20442;-88
2022/09/28 11:41:01;;;;;;;1.45;0.90;;;;;;;;;;5073784;28;20414;-86
2022/09/28 11:43:37;;;;;;;2.60;1.20;;;;;;;;;;5074435;28;20425;-87
2022/09/28 11:46:08;;;;;;;1.20;0.90;;;;;;;;;;5074231;28;20376;-87
2022/09/28 11:48:39;;;;;;;1.87;0.97;;;;;;;;;;5083226;28;20489;-88
2022/09/28 11:51:08;;;;;;;1.30;0.90;;;;;;;;;;5067256;28;20783;-87
2022/09/28 11:53:38;;;;;;;2.28;1.10;;;;;;;;;;5072735;28;20388;-87
2022/09/28 11:56:18;;;;;;;2.37;0.90;;;;;;;;;;5056548;28;20794;-87
2022/09/28 11:58:53;;;;;;;1.75;0.85;;;;;;;;;;5074250;28;20914;-87
2022/09/28 12:01:39;;;;;;;1.95;0.77;;;;;;;;;;5073764;28;20936;-87
2022/09/28 12:04:11;;;;;;;1.98;0.75;;;;;;;;;;5074004;28;20407;-87
2022/09/28 12:06:40;;;;;;;2.53;1.00;;;;;;;;;;5072800;28;20391;-87
2022/09/28 12:09:16;;;;;;;2.15;1.02;;;;;;;;;;5073795;28;20379;-86
2022/09/28 12:11:44;;;;;;;2.38;0.88;;;;;;;;;;5073985;28;20379;-87
2022/09/28 12:14:17;;;;;;;2.70;1.10;;;;;;;;;;5073712;28;20483;-88
2022/09/28 12:16:53;;;;;;;1.70;0.90;;;;;;;;;;5073695;28;20372;-86
2022/09/28 12:19:38;;;;;;;2.13;1.00;;;;;;;;;;5073623;28;20371;-87
2022/09/28 12:22:09;;;;;;;1.65;0.85;;;;;;;;;;5073366;28;20391;-87
2022/09/28 12:24:49;;;;;;;2.53;0.80;;;;;;;;;;5073818;28;20383;-87
2022/09/28 12:27:20;;;;;;;1.65;0.70;;;;;;;;;;4990956;28;21576;-88
2022/09/28 12:29:53;;;;;;;1.10;0.75;;;11.00;99.90;;;;;;4991270;28;20418;-88
2022/09/28 12:32:50;;;;;;;2.30;1.02;;;11.00;99.90;;;;;;4991111;28;20420;-87
2022/09/28 12:35:53;;;;;;;2.20;1.15;;;10.60;99.90;;;;;;4991076;28;20401;-87
2022/09/28 12:38:19;;;;;;;2.30;0.90;;;10.50;99.90;;;;;;4991125;28;20465;-87
2022/09/28 12:41:30;;;;;;;1.27;0.90;;;10.50;99.90;;;;;;4990887;28;20895;-88
2022/09/28 12:44:02;;;;;;;1.83;0.95;;;10.60;99.90;;;;;;5061963;28;20409;-88
2022/09/28 12:47:08;;;;;;;9.63;2.97;;;11.30;99.90;;;;;;5072988;28;20899;-89
2022/09/28 12:49:55;;;;;;;6.80;1.85;;;10.80;99.90;;;;;;5046522;28;20756;-88
2022/09/28 12:52:46;;;;;;;2.87;0.93;;;10.80;99.90;;;;;;4990934;28;20407;-89
2022/09/28 12:55:49;;;;;;;2.25;1.20;;;10.90;99.90;;;;;;5057936;28;20894;-87
2022/09/28 12:58:30;;;;;;;1.63;0.95;;;10.30;99.90;;;;;;4990715;28;20411;-88
2022/09/28 13:01:54;;;;;;;2.08;1.10;;;10.50;99.90;;;;;;4990732;28;20397;-87
2022/09/28 13:04:52;;;;;;;2.38;1.60;;;10.80;99.90;;;;;;4981700;28;20400;-88
2022/09/28 13:07:41;;;;;;;2.95;1.92;;;10.70;99.90;;;;;;5011043;28;20435;-87
2022/09/28 13:10:36;;;;;;;3.35;1.75;;;10.80;99.90;;;;;;4991051;28;20751;-87
2022/09/28 13:13:20;;;;;;;3.97;1.90;;;11.00;99.90;;;;;;5012773;28;20529;-87
2022/09/28 13:16:18;;;;;;;2.45;1.60;;;11.10;99.90;;;;;;5059726;28;20380;-88
2022/09/28 13:18:56;;;;;;;2.65;1.50;;;11.20;99.90;;;;;;5072529;28;20407;-88
2022/09/28 13:21:52;;;;;;;2.85;1.73;;;11.30;99.90;;;;;;5072687;28;20390;-90
2022/09/28 13:24:27;;;;;;;3.17;2.05;;;10.60;99.90;;;;;;5072778;28;20383;-87
2022/09/28 13:26:58;;;;;;;5.13;2.00;;;10.60;99.90;;;;;;5072703;28;20376;-87
2022/09/28 13:29:25;;;;;;;3.38;2.30;;;;;;;;;;5072668;28;20425;-88
2022/09/28 13:31:57;;;;;;;5.00;2.35;;;;;;;;;;5072191;28;20378;-89
2022/09/28 13:34:27;;;;;;;3.50;2.30;;;;;;;;;;5072355;28;20372;-89
2022/09/28 13:37:12;;;;;;;2.75;1.80;;;;;;;;;;5071514;28;20884;-90
2022/09/28 13:39:49;;;;;;;3.27;2.20;;;;;;;;;;5072298;28;20382;-88
2022/09/28 13:42:24;;;;;;;3.83;2.10;;;;;;;;;;5075656;28;20388;-87
2022/09/28 13:44:50;;;;;;;1.95;1.65;;;;;;;;;;5084156;28;20518;-89
2022/09/28 13:47:27;;;;;;;3.35;2.10;;;11.20;99.90;;;;;;5072171;28;20431;-89
2022/09/28 13:50:21;;;;;;;3.07;1.80;;;11.00;99.90;;;;;;5072127;28;20390;-89
2022/09/28 13:52:51;;;;;;;3.30;1.70;;;;;;;;;;5048742;28;20383;-89
2022/09/28 13:55:23;;;;;;;2.40;1.80;;;;;;;;;;5072611;28;20384;-88
2022/09/28 13:57:58;;;;;;;1.92;1.60;;;;;;;;;;5072114;28;20403;-89
2022/09/28 14:00:32;;;;;;;3.25;2.10;;;10.80;99.90;;;;;;5072218;28;20864;-84
2022/09/28 14:03:28;;;;;;;4.13;1.88;;;10.90;99.90;;;;;;5070632;28;20430;-83
2022/09/28 14:06:08;;;;;;;1.27;1.10;;;11.00;99.90;;;;;;5059742;28;20493;-83
2022/09/28 14:08:44;;;;;;;2.40;1.15;;;11.00;99.90;;;;;;5069746;28;20852;-83
2022/09/28 14:11:29;;;;;;;1.58;1.10;;;;;;;;;;5072007;28;20379;-83
2022/09/28 14:14:07;;;;;;;2.03;1.17;;;10.70;99.90;;;;;;5071892;28;20368;-83
2022/09/28 14:16:37;;;;;;;2.35;1.23;;;11.00;99.90;;;;;;5071702;28;20868;-83
2022/09/28 14:19:17;;;;;;;3.05;1.23;;;10.90;99.90;;;;;;5053750;28;20951;-83
2022/09/28 14:22:00;;;;;;;3.90;1.30;;;10.20;99.90;;;;;;5075631;28;20382;-82
2022/09/28 14:24:30;;;;;;;3.35;1.73;;;;;;;;;;5075897;28;20375;-83
2022/09/28 14:27:26;;;;;;;3.13;2.00;;;;;;;;;;5075750;28;20776;-83
2022/09/28 14:30:16;;;;;;;2.90;1.75;;;;;;;;;;5066767;28;20388;-83
2022/09/28 14:32:48;;;;;;;5.22;2.13;;;;;;;;;;5075604;28;20446;-82
2022/09/28 14:35:24;;;;;;;2.65;1.83;;;;;;;;;;5075720;28;20371;-82
2022/09/28 14:41:21;;;;;;;1.85;1.27;;;10.40;99.90;;;;;;5075720;28;20391;-83
2022/09/28 14:43:48;;;;;;;1.70;1.40;;;;;;;;;;5055886;28;20450;-83
2022/09/28 14:46:14;;;;;;;3.25;1.90;;;;;;;;;;5075366;28;20368;-83
2022/09/28 14:48:46;;;;;;;2.90;2.08;;;10.40;99.90;;;;;;5075379;28;20384;-83
2022/09/28 14:51:41;;;;;;;2.38;2.17;;;10.40;99.90;;;;;;5075052;28;20384;-82
2022/09/28 14:54:06;;;;;;;2.60;1.80;;;10.40;99.90;;;;;;5052937;28;20386;-82
2022/09/28 14:56:56;;;;;;;1.30;1.03;;;10.40;99.90;;;;;;5075127;28;20392;-83
2022/09/28 14:59:34;;;;;;;3.00;1.27;;;10.50;99.90;;;;;;5075198;28;20391;-83
2022/09/28 15:02:09;;;;;;;1.20;0.70;;;10.70;99.90;;;;;;5074868;28;20392;-83
2022/09/28 15:04:40;;;;;;;1.83;1.00;;;10.30;99.90;;;;;;5075071;28;20371;-83
2022/09/28 15:07:05;;;;;;;1.90;1.08;;;10.50;99.90;;;;;;5075073;28;20967;-83
2022/09/28 15:09:33;;;;;;;2.10;1.37;;;10.50;99.90;;;;;;5075327;28;20390;-83
2022/09/28 15:12:15;;;;;;;2.78;1.83;;;10.50;99.90;;;;;;5044903;28;20379;-83
2022/09/28 15:15:00;;;;;;;2.58;2.22;;;9.80;99.90;;;;;;5074898;28;20379;-83
2022/09/28 15:17:30;;;;;;;3.33;2.38;;;9.70;99.90;;;;;;5074779;28;20399;-83
2022/09/28 15:20:08;;;;;;;2.20;1.98;;;10.20;99.90;;;;;;5074868;28;20475;-82
2022/09/28 15:22:35;;;;;;;2.33;1.90;;;9.60;99.90;;;;;;5074773;28;20736;-83
2022/09/28 15:25:12;;;;;;;2.90;2.28;;;10.20;99.90;;;;;;5074789;28;20380;-83
2022/09/28 15:27:38;;;;;;;2.88;2.15;;;9.20;99.90;;;;;;5074641;28;20493;-83
2022/09/28 15:30:32;;;;;;;2.50;1.55;;;10.20;99.90;;;;;;5072901;28;20399;-83
2022/09/28 15:35:53;;;;;;;2.90;2.17;;;;;;;;;;5074586;28;21034;-83
2022/09/28 15:38:21;;;;;;;4.95;3.72;;;9.90;99.90;;;;;;5074363;28;20407;-83
2022/09/28 15:40:47;;;;;;;3.28;2.58;;;;;;;;;;5074218;28;20441;-83
2022/09/28 15:43:22;;;;;;;2.13;1.77;;;;;;;;;;5074264;28;20509;-83
2022/09/28 15:46:01;;;;;;;2.07;1.80;;;;;;;;;;5074250;28;20467;-83
2022/09/28 15:48:33;;;;;;;4.00;2.40;;;;;;;;;;5073965;28;20863;-83
2022/09/28 15:51:09;;;;;;;2.50;2.20;;;;;;;;;;5074070;28;20388;-83
2022/09/28 15:53:36;;;;;;;2.47;2.15;;;;;;;;;;5074117;28;20401;-83
2022/09/28 15:56:08;;;;;;;4.97;4.05;;;;;;;;;;5073056;28;20466;-83
2022/09/28 15:58:35;;;;;;;6.20;4.35;;;;;;;;;;5073202;28;20411;-88
2022/09/28 16:01:34;;;;;;;4.60;4.20;;;;;;;;;;5055505;28;20427;-85
2022/09/28 16:04:01;;;;;;;3.03;2.13;;;;;;;;;;5040797;28;20402;-85
2022/09/28 16:06:27;;;;;;;3.80;1.92;;;;;;;;;;5073908;28;20463;-88
2022/09/28 16:08:53;;;;;;;1.58;1.10;;;;;;;;;;5073263;28;20376;-87
2022/09/28 16:11:26;;;;;;;1.73;0.88;;;;;;;;;;5073821;28;20814;-87
2022/09/28 16:14:04;;;;;;;2.65;1.30;;;;;;;;;;5073818;28;20376;-88
2022/09/28 16:16:34;;;;;;;1.60;1.20;;;;;;;;;;5073326;28;20453;-88
2022/09/28 16:19:00;;;;;;;1.60;1.30;;;;;;;;;;5073105;28;20403;-87
2022/09/28 16:21:42;;;;;;;1.67;1.30;;;;;;;;;;5073506;28;20379;-88
2022/09/28 16:24:18;;;;;;;1.42;1.05;;;;;;;;;;5073423;28;20371;-86
2022/09/28 16:26:44;;;;;;;2.38;1.60;;;;;;;;;;5073472;28;20899;-85
2022/09/28 16:29:38;;;;;;;1.30;1.20;;;;;;;;;;5073424;28;20419;-86
2022/09/28 16:32:32;;;;;;;2.05;1.20;;;;;;;;;;4994864;28;20399;-86
2022/09/28 16:35:10;;;;;;;5.55;5.10;;;;;;;;;;4992126;28;20759;-91
2022/09/28 16:37:36;;;;;;;5.95;5.45;;;;;;;;;;5058698;28;20403;-91
2022/09/28 16:40:02;;;;;;;4.78;4.40;;;;;;;;;;5075902;28;20382;-91
2022/09/28 16:42:28;;;;;;;4.90;3.97;;;;;;;;;;5076133;28;20387;-91
2022/09/28 16:44:55;;;;;;;3.00;2.80;;;;;;;;;;5055669;28;20380;-90
2022/09/28 16:47:21;;;;;;;2.20;2.00;;;;;;;;;;5055405;28;20388;-91
2022/09/28 16:49:48;;;;;;;1.45;1.00;;;;;;;;;;5058389;28;20414;-91
2022/09/28 16:55:14;;;;;;;2.38;1.38;;;;;;;;;;5058201;28;20943;-90
2022/09/28 16:55:15;;;;;;;1.70;1.30;;;;;;;;;;5009604;28;20853;-91
2022/09/28 16:57:46;;;;;;;2.05;1.50;;;;;;;;;;5073491;28;20418;-91
2022/09/28 17:00:18;;;;;;;2.20;1.40;;;;;;;;;;5072393;28;20470;-90
2022/09/28 17:02:46;;;;;;;1.70;1.33;;;;;;;;;;5054213;28;20424;-91
2022/09/28 17:05:14;;;;;;;1.50;1.30;;;;;;;;;;5051778;28;20432;-91
2022/09/28 17:07:40;;;;;;;1.85;1.50;;;;;;;;;;5053576;28;20383;-90
2022/09/28 17:10:18;;;;;;;1.52;1.20;;;;;;;;;;5054968;28;20426;-89
2022/09/28 17:12:44;;;;;;;2.00;1.58;;;;;;;;;;5072429;28;20434;-91
2022/09/28 17:15:10;;;;;;;3.72;3.10;;;;;;;;;;5072292;28;20466;-92
2022/09/28 17:17:38;;;;;;;4.03;3.40;;;;;;;;;;5053936;28;20403;-91
2022/09/28 17:20:25;;;;;;;4.10;3.70;;;;;;;;;;5044635;28;20423;-89
2022/09/28 17:22:51;;;;;;;2.50;2.30;;;;;;;;;;5057145;28;20387;-90
2022/09/28 17:25:17;;;;;;;1.95;1.75;;;;;;;;;;4990449;28;20391;-86
2022/09/28 17:27:44;;;;;;;2.60;2.08;;;;;;;;;;5066851;28;20389;-88
2022/09/28 17:30:14;;;;;;;1.40;1.30;;;;;;;;;;5072668;28;20410;-89
2022/09/28 17:32:44;;;;;;;2.67;2.37;;;;;;;;;;5069267;28;20844;-89
2022/09/28 17:35:20;;;;;;;5.20;3.03;;;;;;;;;;5074763;28;20384;-89
2022/09/28 17:37:46;;;;;;;2.47;2.28;;;;;;;;;;5072041;28;20450;-90
2022/09/28 17:40:12;;;;;;;2.42;2.22;;;;;;;;;;5054296;28;20384;-90
2022/09/28 17:42:38;;;;;;;3.33;3.03;;;;;;;;;;5072084;28;20398;-91
2022/09/28 17:45:05;;;;;;;4.95;3.60;;;;;;;;;;5081123;28;20842;-90
2022/09/28 17:47:31;;;;;;;8.63;7.73;;;;;;;;;;5074069;28;20395;-90
2022/09/28 17:49:57;;;;;;;8.27;7.50;;;;;;;;;;5052403;28;20384;-91
2022/09/28 17:52:23;;;;;;;5.97;5.47;;;;;;;;;;5053134;28;20799;-90
2022/09/28 17:54:49;;;;;;;3.97;3.58;;;;;;;;;;5070665;28;20380;-90
2022/09/28 17:57:15;;;;;;;2.80;2.50;;;;;;;;;;5068631;28;20392;-91
2022/09/28 17:59:41;;;;;;;3.25;2.85;;;;;;;;;;5071114;28;20414;-90
2022/09/28 18:02:11;;;;;;;3.30;2.80;;;;;;;;;;5071451;28;20395;-90
2022/09/28 18:04:37;;;;;;;4.50;4.10;;;;;;;;;;5071377;28;20383;-91
2022/09/28 18:07:03;;;;;;;4.20;3.47;;;;;;;;;;5061075;28;20394;-91
2022/09/28 18:09:29;;;;;;;4.45;3.55;;;;;;;;;;5056203;28;20429;-91
2022/09/28 18:11:59;;;;;;;5.60;3.72;;;;;;;;;;5055987;28;20395;-88
2022/09/28 18:14:25;;;;;;;3.35;3.05;;;;;;;;;;5053411;28;20450;-87
2022/09/28 18:16:51;;;;;;;2.90;2.70;;;;;;;;;;5070797;28;20391;-89
2022/09/28 18:19:17;;;;;;;3.53;3.22;;;;;;;;;;5068787;28;20411;-88
2022/09/28 18:21:43;;;;;;;3.25;2.95;;;;;;;;;;5071004;28;20836;-90
2022/09/28 18:24:09;;;;;;;3.07;2.73;;;;;;;;;;5071447;28;20423;-90
2022/09/28 18:26:36;;;;;;;4.50;3.30;;;;;;;;;;5070894;28;20388;-90
2022/09/28 18:29:02;;;;;;;3.08;2.40;;;;;;;;;;5071213;28;20375;-89
2022/09/28 18:31:28;;;;;;;2.80;2.60;;;;;;;;;;5071254;28;20813;-88
2022/09/28 18:34:01;;;;;;;2.20;2.00;;;;;;;;;;5070441;28;20388;-91
2022/09/28 18:36:28;;;;;;;2.55;2.35;;;;;;;;;;5071759;28;20391;-90
2022/09/28 18:38:56;;;;;;;3.13;2.88;;;;;;;;;;5071516;28;20439;-91
2022/09/28 18:41:22;;;;;;;3.92;3.63;;;;;;;;;;5071568;28;20753;-91
2022/09/28 18:43:48;;;;;;;5.27;3.90;;;;;;;;;;5071804;28;20390;-91